sensor_id;sensor_type;location;lat;lon;timestamp;P1;durP1;ratioP1;P2;durP2;ratioP2
22449;SDS011;11392;57.390;-2.468;2023-05-24T00:02:21;2.83;;;1.75;;
22449;SDS011;11392;57.390;-2.468;2023-05-24T00:04:52;5.25;;;1.90;;
22449;SDS011;11392;57.390;-2.468;2023-05-24T00:07:19;1.90;;;1.70;;
22449;SDS011;11392;57.390;-2.468;2023-05-24T00:09:46;3.28;;;1.80;;
22449;SDS011;11392;57.390;-2.468;2023-05-24T00:12:14;2.20;;;1.60;;
22449;SDS011;11392;57.390;-2.468;2023-05-24T00:14:41;2.05;;;1.60;;
22449;SDS011;11392;57.390;-2.468;2023-05-24T00:17:08;3.13;;;1.50;;
22449;SDS011;11392;57.390;-2.468;2023-05-24T00:19:35;2.38;;;1.65;;
22449;SDS011;11392;57.390;-2.468;2023-05-24T00:22:03;1.73;;;1.52;;
22449;SDS011;11392;57.390;-2.468;2023-05-24T00:24:31;3.78;;;2.42;;
22449;SDS011;11392;57.390;-2.468;2023-05-24T00:26:58;2.45;;;1.83;;
22449;SDS011;11392;57.390;-2.468;2023-05-24T00:29:25;2.28;;;1.80;;
22449;SDS011;11392;57.390;-2.468;2023-05-24T00:31:52;2.35;;;1.70;;
22449;SDS011;11392;57.390;-2.468;2023-05-24T00:34:19;2.25;;;1.85;;
22449;SDS011;11392;57.390;-2.468;2023-05-24T00:36:46;2.15;;;1.90;;
22449;SDS011;11392;57.390;-2.468;2023-05-24T00:39:13;3.35;;;2.00;;
22449;SDS011;11392;57.390;-2.468;2023-05-24T00:41:40;3.00;;;2.00;;
22449;SDS011;11392;57.390;-2.468;2023-05-24T00:44:07;3.40;;;1.80;;
22449;SDS011;11392;57.390;-2.468;2023-05-24T00:46:36;3.63;;;2.00;;
22449;SDS011;11392;57.390;-2.468;2023-05-24T00:49:04;3.72;;;2.30;;
22449;SDS011;11392;57.390;-2.468;2023-05-24T00:51:31;2.00;;;1.80;;
22449;SDS011;11392;57.390;-2.468;2023-05-24T00:53:59;2.92;;;1.67;;
22449;SDS011;11392;57.390;-2.468;2023-05-24T00:56:26;2.45;;;1.85;;
22449;SDS011;11392;57.390;-2.468;2023-05-24T00:58:54;3.92;;;2.28;;
22449;SDS011;11392;57.390;-2.468;2023-05-24T01:01:21;3.65;;;2.10;;
22449;SDS011;11392;57.390;-2.468;2023-05-24T01:03:56;5.53;;;2.60;;
22449;SDS011;11392;57.390;-2.468;2023-05-24T01:06:27;5.55;;;2.30;;
22449;SDS011;11392;57.390;-2.468;2023-05-24T01:09:00;5.32;;;2.83;;
22449;SDS011;11392;57.390;-2.468;2023-05-24T01:11:50;5.70;;;3.15;;
22449;SDS011;11392;57.390;-2.468;2023-05-24T01:14:40;4.68;;;2.80;;
22449;SDS011;11392;57.390;-2.468;2023-05-24T01:17:42;4.47;;;3.00;;
22449;SDS011;11392;57.390;-2.468;2023-05-24T01:20:11;9.27;;;3.08;;
22449;SDS011;11392;57.390;-2.468;2023-05-24T01:25:23;6.00;;;2.83;;
22449;SDS011;11392;57.390;-2.468;2023-05-24T01:28:07;6.75;;;3.65;;
22449;SDS011;11392;57.390;-2.468;2023-05-24T01:30:36;4.68;;;3.00;;
22449;SDS011;11392;57.390;-2.468;2023-05-24T01:33:07;5.30;;;2.50;;
22449;SDS011;11392;57.390;-2.468;2023-05-24T01:35:35;5.63;;;2.63;;
22449;SDS011;11392;57.390;-2.468;2023-05-24T01:38:05;2.55;;;2.00;;
22449;SDS011;11392;57.390;-2.468;2023-05-24T01:40:33;5.38;;;2.33;;
22449;SDS011;11392;57.390;-2.468;2023-05-24T01:46:39;3.42;;;2.33;;
22449;SDS011;11392;57.390;-2.468;2023-05-24T01:49:08;3.17;;;2.22;;
22449;SDS011;11392;57.390;-2.468;2023-05-24T01:51:59;5.85;;;2.88;;
22449;SDS011;11392;57.390;-2.468;2023-05-24T01:54:32;6.35;;;2.53;;
22449;SDS011;11392;57.390;-2.468;2023-05-24T01:57:04;6.80;;;2.85;;
22449;SDS011;11392;57.390;-2.468;2023-05-24T01:59:34;6.18;;;2.30;;
22449;SDS011;11392;57.390;-2.468;2023-05-24T02:02:03;8.07;;;3.58;;
22449;SDS011;11392;57.390;-2.468;2023-05-24T02:04:31;3.30;;;2.30;;
22449;SDS011;11392;57.390;-2.468;2023-05-24T02:06:58;5.13;;;2.67;;
22449;SDS011;11392;57.390;-2.468;2023-05-24T02:09:25;5.00;;;2.75;;
22449;SDS011;11392;57.390;-2.468;2023-05-24T02:11:52;6.85;;;3.03;;
22449;SDS011;11392;57.390;-2.468;2023-05-24T02:14:19;3.25;;;2.33;;
22449;SDS011;11392;57.390;-2.468;2023-05-24T02:16:46;5.93;;;2.80;;
22449;SDS011;11392;57.390;-2.468;2023-05-24T02:19:16;7.18;;;2.78;;
22449;SDS011;11392;57.390;-2.468;2023-05-24T02:21:43;6.57;;;3.10;;
22449;SDS011;11392;57.390;-2.468;2023-05-24T02:24:10;5.40;;;2.67;;
22449;SDS011;11392;57.390;-2.468;2023-05-24T02:26:37;7.35;;;3.08;;
22449;SDS011;11392;57.390;-2.468;2023-05-24T02:29:05;7.45;;;3.40;;
22449;SDS011;11392;57.390;-2.468;2023-05-24T02:31:32;7.47;;;3.85;;
22449;SDS011;11392;57.390;-2.468;2023-05-24T02:33:59;10.10;;;3.63;;
22449;SDS011;11392;57.390;-2.468;2023-05-24T02:36:26;13.05;;;4.82;;
22449;SDS011;11392;57.390;-2.468;2023-05-24T02:38:53;9.90;;;4.38;;
22449;SDS011;11392;57.390;-2.468;2023-05-24T02:41:22;7.30;;;3.40;;
22449;SDS011;11392;57.390;-2.468;2023-05-24T02:43:49;8.38;;;3.03;;
22449;SDS011;11392;57.390;-2.468;2023-05-24T02:46:16;3.42;;;2.38;;
22449;SDS011;11392;57.390;-2.468;2023-05-24T02:48:43;6.90;;;2.45;;
22449;SDS011;11392;57.390;-2.468;2023-05-24T02:51:11;8.50;;;3.13;;
22449;SDS011;11392;57.390;-2.468;2023-05-24T02:53:38;5.60;;;2.42;;
22449;SDS011;11392;57.390;-2.468;2023-05-24T02:56:05;5.25;;;2.95;;
22449;SDS011;11392;57.390;-2.468;2023-05-24T02:58:33;8.15;;;3.15;;
22449;SDS011;11392;57.390;-2.468;2023-05-24T03:01:00;6.60;;;2.30;;
22449;SDS011;11392;57.390;-2.468;2023-05-24T03:03:27;7.65;;;3.85;;
22449;SDS011;11392;57.390;-2.468;2023-05-24T03:05:54;5.22;;;2.83;;
22449;SDS011;11392;57.390;-2.468;2023-05-24T03:08:21;6.25;;;3.00;;
22449;SDS011;11392;57.390;-2.468;2023-05-24T03:10:49;7.10;;;3.03;;
22449;SDS011;11392;57.390;-2.468;2023-05-24T03:13:16;8.90;;;3.20;;
22449;SDS011;11392;57.390;-2.468;2023-05-24T03:15:43;17.90;;;5.38;;
22449;SDS011;11392;57.390;-2.468;2023-05-24T03:18:10;7.65;;;3.15;;
22449;SDS011;11392;57.390;-2.468;2023-05-24T03:20:37;4.90;;;2.80;;
22449;SDS011;11392;57.390;-2.468;2023-05-24T03:23:04;8.25;;;3.70;;
22449;SDS011;11392;57.390;-2.468;2023-05-24T03:25:31;7.53;;;3.15;;
22449;SDS011;11392;57.390;-2.468;2023-05-24T03:27:59;7.53;;;3.20;;
22449;SDS011;11392;57.390;-2.468;2023-05-24T03:30:28;6.50;;;2.80;;
22449;SDS011;11392;57.390;-2.468;2023-05-24T03:32:55;5.55;;;3.20;;
22449;SDS011;11392;57.390;-2.468;2023-05-24T03:35:22;4.18;;;2.85;;
22449;SDS011;11392;57.390;-2.468;2023-05-24T03:37:50;10.43;;;3.10;;
22449;SDS011;11392;57.390;-2.468;2023-05-24T03:40:17;10.07;;;3.30;;
22449;SDS011;11392;57.390;-2.468;2023-05-24T03:42:44;6.10;;;2.72;;
22449;SDS011;11392;57.390;-2.468;2023-05-24T03:45:11;7.78;;;3.13;;
22449;SDS011;11392;57.390;-2.468;2023-05-24T03:47:44;9.00;;;3.40;;
22449;SDS011;11392;57.390;-2.468;2023-05-24T03:50:11;11.52;;;3.35;;
22449;SDS011;11392;57.390;-2.468;2023-05-24T03:52:40;8.77;;;3.10;;
22449;SDS011;11392;57.390;-2.468;2023-05-24T03:55:08;8.40;;;3.47;;
22449;SDS011;11392;57.390;-2.468;2023-05-24T03:57:35;9.90;;;3.58;;
22449;SDS011;11392;57.390;-2.468;2023-05-24T04:00:02;6.88;;;2.88;;
22449;SDS011;11392;57.390;-2.468;2023-05-24T04:02:32;8.13;;;2.78;;
22449;SDS011;11392;57.390;-2.468;2023-05-24T04:04:59;11.50;;;4.20;;
22449;SDS011;11392;57.390;-2.468;2023-05-24T04:07:27;6.18;;;3.00;;
22449;SDS011;11392;57.390;-2.468;2023-05-24T04:09:54;6.65;;;2.78;;
22449;SDS011;11392;57.390;-2.468;2023-05-24T04:12:21;5.47;;;2.58;;
22449;SDS011;11392;57.390;-2.468;2023-05-24T04:14:48;6.53;;;3.47;;
22449;SDS011;11392;57.390;-2.468;2023-05-24T04:17:17;7.03;;;2.85;;
22449;SDS011;11392;57.390;-2.468;2023-05-24T04:19:44;8.02;;;2.58;;
22449;SDS011;11392;57.390;-2.468;2023-05-24T04:22:12;12.32;;;6.05;;
22449;SDS011;11392;57.390;-2.468;2023-05-24T04:24:39;8.98;;;3.40;;
22449;SDS011;11392;57.390;-2.468;2023-05-24T04:27:07;9.50;;;3.22;;
22449;SDS011;11392;57.390;-2.468;2023-05-24T04:29:35;7.47;;;3.13;;
22449;SDS011;11392;57.390;-2.468;2023-05-24T04:32:05;7.63;;;3.08;;
22449;SDS011;11392;57.390;-2.468;2023-05-24T04:34:32;11.43;;;3.50;;
22449;SDS011;11392;57.390;-2.468;2023-05-24T04:37:01;11.25;;;3.63;;
22449;SDS011;11392;57.390;-2.468;2023-05-24T04:39:28;7.93;;;3.50;;
22449;SDS011;11392;57.390;-2.468;2023-05-24T04:41:56;10.45;;;3.22;;
22449;SDS011;11392;57.390;-2.468;2023-05-24T04:44:24;8.98;;;3.63;;
22449;SDS011;11392;57.390;-2.468;2023-05-24T04:46:51;15.50;;;4.38;;
22449;SDS011;11392;57.390;-2.468;2023-05-24T04:49:19;7.13;;;3.42;;
22449;SDS011;11392;57.390;-2.468;2023-05-24T04:51:47;11.65;;;3.50;;
22449;SDS011;11392;57.390;-2.468;2023-05-24T04:54:14;13.00;;;3.38;;
22449;SDS011;11392;57.390;-2.468;2023-05-24T04:56:43;14.50;;;3.90;;
22449;SDS011;11392;57.390;-2.468;2023-05-24T04:59:11;15.05;;;4.43;;
22449;SDS011;11392;57.390;-2.468;2023-05-24T05:01:38;9.68;;;3.90;;
22449;SDS011;11392;57.390;-2.468;2023-05-24T05:04:05;7.45;;;3.60;;
22449;SDS011;11392;57.390;-2.468;2023-05-24T05:06:33;10.23;;;3.55;;
22449;SDS011;11392;57.390;-2.468;2023-05-24T05:09:04;11.82;;;4.13;;
22449;SDS011;11392;57.390;-2.468;2023-05-24T05:11:35;10.80;;;3.63;;
22449;SDS011;11392;57.390;-2.468;2023-05-24T05:14:02;8.82;;;3.50;;
22449;SDS011;11392;57.390;-2.468;2023-05-24T05:16:29;12.20;;;3.90;;
22449;SDS011;11392;57.390;-2.468;2023-05-24T05:18:57;14.00;;;4.03;;
22449;SDS011;11392;57.390;-2.468;2023-05-24T05:21:24;13.32;;;4.20;;
22449;SDS011;11392;57.390;-2.468;2023-05-24T05:23:51;14.25;;;4.60;;
22449;SDS011;11392;57.390;-2.468;2023-05-24T05:26:20;10.32;;;3.45;;
22449;SDS011;11392;57.390;-2.468;2023-05-24T05:28:47;12.18;;;4.00;;
22449;SDS011;11392;57.390;-2.468;2023-05-24T05:31:14;10.57;;;3.80;;
22449;SDS011;11392;57.390;-2.468;2023-05-24T05:33:41;12.35;;;4.35;;
22449;SDS011;11392;57.390;-2.468;2023-05-24T05:36:08;9.15;;;3.65;;
22449;SDS011;11392;57.390;-2.468;2023-05-24T05:38:35;8.10;;;3.42;;
22449;SDS011;11392;57.390;-2.468;2023-05-24T05:41:03;8.15;;;3.22;;
22449;SDS011;11392;57.390;-2.468;2023-05-24T05:43:30;11.43;;;4.72;;
22449;SDS011;11392;57.390;-2.468;2023-05-24T05:45:57;12.27;;;4.45;;
22449;SDS011;11392;57.390;-2.468;2023-05-24T05:48:26;9.75;;;3.45;;
22449;SDS011;11392;57.390;-2.468;2023-05-24T05:50:53;10.20;;;3.80;;
22449;SDS011;11392;57.390;-2.468;2023-05-24T05:53:20;11.57;;;4.05;;
22449;SDS011;11392;57.390;-2.468;2023-05-24T05:55:47;10.07;;;3.90;;
22449;SDS011;11392;57.390;-2.468;2023-05-24T05:58:14;11.98;;;4.43;;
22449;SDS011;11392;57.390;-2.468;2023-05-24T06:00:41;13.85;;;4.15;;
22449;SDS011;11392;57.390;-2.468;2023-05-24T06:03:08;13.90;;;4.32;;
22449;SDS011;11392;57.390;-2.468;2023-05-24T06:05:36;9.95;;;3.47;;
22449;SDS011;11392;57.390;-2.468;2023-05-24T06:08:03;8.50;;;3.20;;
22449;SDS011;11392;57.390;-2.468;2023-05-24T06:10:30;13.15;;;3.67;;
22449;SDS011;11392;57.390;-2.468;2023-05-24T06:12:57;9.30;;;3.17;;
22449;SDS011;11392;57.390;-2.468;2023-05-24T06:15:27;17.77;;;4.68;;
22449;SDS011;11392;57.390;-2.468;2023-05-24T06:17:54;9.02;;;3.00;;
22449;SDS011;11392;57.390;-2.468;2023-05-24T06:20:21;12.68;;;3.50;;
22449;SDS011;11392;57.390;-2.468;2023-05-24T06:22:48;9.40;;;3.50;;
22449;SDS011;11392;57.390;-2.468;2023-05-24T06:25:16;7.90;;;3.28;;
22449;SDS011;11392;57.390;-2.468;2023-05-24T06:27:46;17.02;;;5.88;;
22449;SDS011;11392;57.390;-2.468;2023-05-24T06:30:13;9.90;;;3.72;;
22449;SDS011;11392;57.390;-2.468;2023-05-24T06:32:40;12.88;;;4.43;;
22449;SDS011;11392;57.390;-2.468;2023-05-24T06:35:07;11.18;;;4.07;;
22449;SDS011;11392;57.390;-2.468;2023-05-24T06:37:35;12.35;;;3.88;;
22449;SDS011;11392;57.390;-2.468;2023-05-24T06:40:05;8.10;;;3.15;;
22449;SDS011;11392;57.390;-2.468;2023-05-24T06:42:34;11.52;;;3.90;;
22449;SDS011;11392;57.390;-2.468;2023-05-24T06:45:02;7.20;;;3.15;;
22449;SDS011;11392;57.390;-2.468;2023-05-24T06:47:29;7.50;;;3.88;;
22449;SDS011;11392;57.390;-2.468;2023-05-24T06:49:57;14.23;;;4.57;;
22449;SDS011;11392;57.390;-2.468;2023-05-24T06:52:24;9.57;;;3.30;;
22449;SDS011;11392;57.390;-2.468;2023-05-24T06:54:51;12.20;;;4.13;;
22449;SDS011;11392;57.390;-2.468;2023-05-24T06:57:18;14.13;;;3.72;;
22449;SDS011;11392;57.390;-2.468;2023-05-24T06:59:46;8.15;;;3.40;;
22449;SDS011;11392;57.390;-2.468;2023-05-24T07:02:13;12.18;;;3.60;;
22449;SDS011;11392;57.390;-2.468;2023-05-24T07:04:40;7.40;;;3.25;;
22449;SDS011;11392;57.390;-2.468;2023-05-24T07:07:07;9.27;;;3.20;;
22449;SDS011;11392;57.390;-2.468;2023-05-24T07:09:39;9.98;;;2.83;;
22449;SDS011;11392;57.390;-2.468;2023-05-24T07:12:07;11.98;;;3.72;;
22449;SDS011;11392;57.390;-2.468;2023-05-24T07:14:34;9.95;;;3.60;;
22449;SDS011;11392;57.390;-2.468;2023-05-24T07:17:02;5.55;;;3.03;;
22449;SDS011;11392;57.390;-2.468;2023-05-24T07:19:30;8.32;;;3.28;;
22449;SDS011;11392;57.390;-2.468;2023-05-24T07:21:59;6.88;;;2.58;;
22449;SDS011;11392;57.390;-2.468;2023-05-24T07:24:26;8.18;;;3.53;;
22449;SDS011;11392;57.390;-2.468;2023-05-24T07:26:53;11.80;;;3.17;;
22449;SDS011;11392;57.390;-2.468;2023-05-24T07:29:22;5.60;;;2.58;;
22449;SDS011;11392;57.390;-2.468;2023-05-24T07:31:49;4.72;;;2.60;;
22449;SDS011;11392;57.390;-2.468;2023-05-24T07:34:18;7.85;;;2.88;;
22449;SDS011;11392;57.390;-2.468;2023-05-24T07:36:46;8.02;;;2.78;;
22449;SDS011;11392;57.390;-2.468;2023-05-24T07:39:15;7.15;;;3.00;;
22449;SDS011;11392;57.390;-2.468;2023-05-24T07:41:42;7.20;;;2.80;;
22449;SDS011;11392;57.390;-2.468;2023-05-24T07:44:09;9.90;;;3.03;;
22449;SDS011;11392;57.390;-2.468;2023-05-24T07:46:37;8.00;;;3.50;;
22449;SDS011;11392;57.390;-2.468;2023-05-24T07:49:04;7.18;;;2.60;;
22449;SDS011;11392;57.390;-2.468;2023-05-24T07:51:32;7.78;;;2.63;;
22449;SDS011;11392;57.390;-2.468;2023-05-24T07:53:59;6.80;;;2.58;;
22449;SDS011;11392;57.390;-2.468;2023-05-24T07:56:26;6.65;;;3.00;;
22449;SDS011;11392;57.390;-2.468;2023-05-24T07:58:53;9.38;;;2.47;;
22449;SDS011;11392;57.390;-2.468;2023-05-24T08:01:25;7.18;;;2.65;;
22449;SDS011;11392;57.390;-2.468;2023-05-24T08:03:54;6.90;;;3.00;;
22449;SDS011;11392;57.390;-2.468;2023-05-24T08:06:21;4.78;;;2.15;;
22449;SDS011;11392;57.390;-2.468;2023-05-24T08:08:49;6.70;;;2.55;;
22449;SDS011;11392;57.390;-2.468;2023-05-24T08:11:16;6.15;;;2.22;;
22449;SDS011;11392;57.390;-2.468;2023-05-24T08:13:43;6.22;;;2.05;;
22449;SDS011;11392;57.390;-2.468;2023-05-24T08:16:10;4.38;;;1.85;;
22449;SDS011;11392;57.390;-2.468;2023-05-24T08:18:38;5.07;;;2.05;;
22449;SDS011;11392;57.390;-2.468;2023-05-24T08:21:05;5.15;;;1.73;;
22449;SDS011;11392;57.390;-2.468;2023-05-24T08:23:34;4.28;;;1.73;;
22449;SDS011;11392;57.390;-2.468;2023-05-24T08:26:01;5.70;;;1.83;;
22449;SDS011;11392;57.390;-2.468;2023-05-24T08:28:28;4.15;;;2.03;;
22449;SDS011;11392;57.390;-2.468;2023-05-24T08:30:55;5.15;;;2.03;;
22449;SDS011;11392;57.390;-2.468;2023-05-24T08:33:23;4.65;;;1.67;;
22449;SDS011;11392;57.390;-2.468;2023-05-24T08:35:51;4.38;;;1.92;;
22449;SDS011;11392;57.390;-2.468;2023-05-24T08:38:18;3.97;;;1.60;;
22449;SDS011;11392;57.390;-2.468;2023-05-24T08:40:46;3.53;;;1.48;;
22449;SDS011;11392;57.390;-2.468;2023-05-24T08:43:13;3.45;;;1.45;;
22449;SDS011;11392;57.390;-2.468;2023-05-24T08:45:40;5.28;;;1.60;;
22449;SDS011;11392;57.390;-2.468;2023-05-24T08:48:08;5.25;;;1.70;;
22449;SDS011;11392;57.390;-2.468;2023-05-24T08:50:36;2.60;;;1.02;;
22449;SDS011;11392;57.390;-2.468;2023-05-24T08:53:03;3.33;;;1.40;;
22449;SDS011;11392;57.390;-2.468;2023-05-24T08:55:32;3.00;;;1.25;;
22449;SDS011;11392;57.390;-2.468;2023-05-24T08:58:00;2.40;;;1.40;;
22449;SDS011;11392;57.390;-2.468;2023-05-24T09:00:27;3.42;;;1.48;;
22449;SDS011;11392;57.390;-2.468;2023-05-24T09:02:55;4.35;;;1.40;;
22449;SDS011;11392;57.390;-2.468;2023-05-24T09:05:24;2.67;;;1.00;;
22449;SDS011;11392;57.390;-2.468;2023-05-24T09:07:51;2.53;;;1.17;;
22449;SDS011;11392;57.390;-2.468;2023-05-24T09:10:21;1.77;;;1.02;;
22449;SDS011;11392;57.390;-2.468;2023-05-24T09:12:51;3.03;;;1.00;;
22449;SDS011;11392;57.390;-2.468;2023-05-24T09:15:23;2.42;;;1.30;;
22449;SDS011;11392;57.390;-2.468;2023-05-24T09:17:51;2.42;;;1.60;;
22449;SDS011;11392;57.390;-2.468;2023-05-24T09:20:19;3.38;;;1.63;;
22449;SDS011;11392;57.390;-2.468;2023-05-24T09:22:49;2.65;;;1.67;;
22449;SDS011;11392;57.390;-2.468;2023-05-24T09:25:17;2.05;;;1.33;;
22449;SDS011;11392;57.390;-2.468;2023-05-24T09:27:49;2.65;;;1.30;;
22449;SDS011;11392;57.390;-2.468;2023-05-24T09:30:18;1.55;;;1.08;;
22449;SDS011;11392;57.390;-2.468;2023-05-24T09:32:54;2.55;;;1.20;;
22449;SDS011;11392;57.390;-2.468;2023-05-24T09:35:26;1.27;;;0.90;;
22449;SDS011;11392;57.390;-2.468;2023-05-24T09:37:54;1.20;;;0.80;;
22449;SDS011;11392;57.390;-2.468;2023-05-24T09:40:27;2.92;;;1.13;;
22449;SDS011;11392;57.390;-2.468;2023-05-24T09:43:05;2.53;;;1.15;;
22449;SDS011;11392;57.390;-2.468;2023-05-24T09:45:41;1.30;;;0.90;;
22449;SDS011;11392;57.390;-2.468;2023-05-24T09:48:12;1.33;;;0.85;;
22449;SDS011;11392;57.390;-2.468;2023-05-24T09:50:43;2.92;;;1.05;;
22449;SDS011;11392;57.390;-2.468;2023-05-24T09:53:15;2.60;;;1.00;;
22449;SDS011;11392;57.390;-2.468;2023-05-24T09:55:44;1.75;;;1.38;;
22449;SDS011;11392;57.390;-2.468;2023-05-24T09:58:11;1.15;;;0.77;;
22449;SDS011;11392;57.390;-2.468;2023-05-24T10:06:25;1.40;;;0.60;;
22449;SDS011;11392;57.390;-2.468;2023-05-24T10:11:35;0.80;;;0.80;;
22449;SDS011;11392;57.390;-2.468;2023-05-24T10:14:23;3.25;;;1.17;;
22449;SDS011;11392;57.390;-2.468;2023-05-24T10:16:52;2.63;;;0.95;;
22449;SDS011;11392;57.390;-2.468;2023-05-24T10:19:19;1.92;;;0.88;;
22449;SDS011;11392;57.390;-2.468;2023-05-24T10:21:47;1.83;;;0.93;;
22449;SDS011;11392;57.390;-2.468;2023-05-24T10:24:15;2.67;;;0.90;;
22449;SDS011;11392;57.390;-2.468;2023-05-24T10:26:47;2.00;;;0.80;;
22449;SDS011;11392;57.390;-2.468;2023-05-24T10:29:18;1.27;;;1.08;;
22449;SDS011;11392;57.390;-2.468;2023-05-24T10:32:07;2.90;;;1.23;;
22449;SDS011;11392;57.390;-2.468;2023-05-24T10:56:09;0.70;;;0.68;;
22449;SDS011;11392;57.390;-2.468;2023-05-24T11:01:30;0.80;;;0.80;;
22449;SDS011;11392;57.390;-2.468;2023-05-24T11:04:08;0.95;;;0.80;;
22449;SDS011;11392;57.390;-2.468;2023-05-24T11:06:46;1.13;;;1.00;;
22449;SDS011;11392;57.390;-2.468;2023-05-24T11:09:17;1.27;;;0.80;;
22449;SDS011;11392;57.390;-2.468;2023-05-24T11:11:54;1.73;;;0.98;;
22449;SDS011;11392;57.390;-2.468;2023-05-24T11:14:25;1.67;;;0.77;;
22449;SDS011;11392;57.390;-2.468;2023-05-24T11:16:54;1.23;;;0.80;;
22449;SDS011;11392;57.390;-2.468;2023-05-24T11:19:35;1.02;;;0.80;;
22449;SDS011;11392;57.390;-2.468;2023-05-24T11:22:07;0.77;;;0.50;;
22449;SDS011;11392;57.390;-2.468;2023-05-24T11:24:34;0.55;;;0.55;;
22449;SDS011;11392;57.390;-2.468;2023-05-24T11:27:02;0.60;;;0.60;;
22449;SDS011;11392;57.390;-2.468;2023-05-24T11:29:31;0.85;;;0.68;;
22449;SDS011;11392;57.390;-2.468;2023-05-24T11:32:01;0.70;;;0.70;;
22449;SDS011;11392;57.390;-2.468;2023-05-24T11:34:33;0.80;;;0.80;;
22449;SDS011;11392;57.390;-2.468;2023-05-24T11:37:01;0.80;;;0.80;;
22449;SDS011;11392;57.390;-2.468;2023-05-24T11:39:32;1.55;;;0.95;;
22449;SDS011;11392;57.390;-2.468;2023-05-24T11:42:04;1.85;;;0.60;;
22449;SDS011;11392;57.390;-2.468;2023-05-24T11:44:32;1.92;;;0.77;;
22449;SDS011;11392;57.390;-2.468;2023-05-24T11:47:04;0.95;;;0.70;;
22449;SDS011;11392;57.390;-2.468;2023-05-24T11:49:32;1.88;;;0.80;;
22449;SDS011;11392;57.390;-2.468;2023-05-24T11:52:00;1.05;;;0.75;;
22449;SDS011;11392;57.390;-2.468;2023-05-24T11:54:28;1.42;;;0.70;;
22449;SDS011;11392;57.390;-2.468;2023-05-24T11:56:58;0.85;;;0.70;;
22449;SDS011;11392;57.390;-2.468;2023-05-24T11:59:26;1.08;;;0.70;;
22449;SDS011;11392;57.390;-2.468;2023-05-24T12:04:26;0.82;;;0.70;;
22449;SDS011;11392;57.390;-2.468;2023-05-24T12:06:54;0.88;;;0.70;;
22449;SDS011;11392;57.390;-2.468;2023-05-24T12:09:22;0.68;;;0.63;;
22449;SDS011;11392;57.390;-2.468;2023-05-24T12:11:50;1.08;;;0.82;;
22449;SDS011;11392;57.390;-2.468;2023-05-24T12:14:20;0.90;;;0.70;;
22449;SDS011;11392;57.390;-2.468;2023-05-24T12:16:52;0.63;;;0.63;;
22449;SDS011;11392;57.390;-2.468;2023-05-24T12:19:24;0.57;;;0.57;;
22449;SDS011;11392;57.390;-2.468;2023-05-24T12:21:59;0.70;;;0.60;;
22449;SDS011;11392;57.390;-2.468;2023-05-24T12:24:30;0.77;;;0.60;;
22449;SDS011;11392;57.390;-2.468;2023-05-24T12:27:01;0.70;;;0.68;;
22449;SDS011;11392;57.390;-2.468;2023-05-24T12:29:34;0.73;;;0.73;;
22449;SDS011;11392;57.390;-2.468;2023-05-24T12:32:02;0.70;;;0.70;;
22449;SDS011;11392;57.390;-2.468;2023-05-24T12:34:29;0.88;;;0.80;;
22449;SDS011;11392;57.390;-2.468;2023-05-24T12:36:58;0.80;;;0.70;;
22449;SDS011;11392;57.390;-2.468;2023-05-24T12:39:26;0.88;;;0.80;;
22449;SDS011;11392;57.390;-2.468;2023-05-24T12:41:57;0.60;;;0.60;;
22449;SDS011;11392;57.390;-2.468;2023-05-24T12:44:28;0.85;;;0.80;;
22449;SDS011;11392;57.390;-2.468;2023-05-24T12:47:05;0.60;;;0.60;;
22449;SDS011;11392;57.390;-2.468;2023-05-24T12:49:34;0.70;;;0.70;;
22449;SDS011;11392;57.390;-2.468;2023-05-24T12:52:01;0.82;;;0.68;;
22449;SDS011;11392;57.390;-2.468;2023-05-24T12:54:29;1.17;;;0.80;;
22449;SDS011;11392;57.390;-2.468;2023-05-24T12:56:56;0.80;;;0.60;;
22449;SDS011;11392;57.390;-2.468;2023-05-24T12:59:28;0.77;;;0.77;;
22449;SDS011;11392;57.390;-2.468;2023-05-24T13:01:56;1.42;;;1.33;;
22449;SDS011;11392;57.390;-2.468;2023-05-24T13:04:23;0.95;;;0.70;;
22449;SDS011;11392;57.390;-2.468;2023-05-24T13:06:53;0.60;;;0.60;;
22449;SDS011;11392;57.390;-2.468;2023-05-24T13:09:21;0.55;;;0.55;;
22449;SDS011;11392;57.390;-2.468;2023-05-24T13:11:49;0.70;;;0.68;;
22449;SDS011;11392;57.390;-2.468;2023-05-24T13:14:19;0.60;;;0.60;;
22449;SDS011;11392;57.390;-2.468;2023-05-24T13:16:46;0.60;;;0.60;;
22449;SDS011;11392;57.390;-2.468;2023-05-24T13:19:14;0.57;;;0.50;;
22449;SDS011;11392;57.390;-2.468;2023-05-24T13:21:42;0.60;;;0.60;;
22449;SDS011;11392;57.390;-2.468;2023-05-24T13:24:11;1.40;;;0.60;;
22449;SDS011;11392;57.390;-2.468;2023-05-24T13:26:40;1.58;;;0.60;;
22449;SDS011;11392;57.390;-2.468;2023-05-24T13:29:07;0.68;;;0.68;;
22449;SDS011;11392;57.390;-2.468;2023-05-24T13:31:37;0.70;;;0.70;;
22449;SDS011;11392;57.390;-2.468;2023-05-24T13:34:06;1.05;;;0.80;;
22449;SDS011;11392;57.390;-2.468;2023-05-24T13:36:36;0.90;;;0.50;;
22449;SDS011;11392;57.390;-2.468;2023-05-24T13:39:03;0.57;;;0.55;;
22449;SDS011;11392;57.390;-2.468;2023-05-24T13:41:36;0.50;;;0.50;;
22449;SDS011;11392;57.390;-2.468;2023-05-24T13:44:04;1.08;;;0.60;;
22449;SDS011;11392;57.390;-2.468;2023-05-24T13:46:32;0.60;;;0.60;;
22449;SDS011;11392;57.390;-2.468;2023-05-24T13:48:59;0.63;;;0.63;;
22449;SDS011;11392;57.390;-2.468;2023-05-24T13:51:27;0.80;;;0.70;;
22449;SDS011;11392;57.390;-2.468;2023-05-24T13:53:54;0.90;;;0.75;;
22449;SDS011;11392;57.390;-2.468;2023-05-24T13:56:22;1.25;;;0.90;;
22449;SDS011;11392;57.390;-2.468;2023-05-24T13:58:50;2.85;;;1.10;;
22449;SDS011;11392;57.390;-2.468;2023-05-24T14:01:18;2.90;;;0.90;;
22449;SDS011;11392;57.390;-2.468;2023-05-24T14:03:46;1.83;;;0.95;;
22449;SDS011;11392;57.390;-2.468;2023-05-24T14:06:13;3.05;;;1.13;;
22449;SDS011;11392;57.390;-2.468;2023-05-24T14:08:40;2.70;;;1.00;;
22449;SDS011;11392;57.390;-2.468;2023-05-24T14:11:07;1.45;;;1.00;;
22449;SDS011;11392;57.390;-2.468;2023-05-24T14:13:36;1.50;;;0.73;;
22449;SDS011;11392;57.390;-2.468;2023-05-24T14:16:06;1.40;;;0.70;;
22449;SDS011;11392;57.390;-2.468;2023-05-24T14:18:34;0.90;;;0.80;;
22449;SDS011;11392;57.390;-2.468;2023-05-24T14:21:01;1.65;;;0.98;;
22449;SDS011;11392;57.390;-2.468;2023-05-24T14:23:29;1.08;;;0.98;;
22449;SDS011;11392;57.390;-2.468;2023-05-24T14:25:58;3.20;;;1.10;;
22449;SDS011;11392;57.390;-2.468;2023-05-24T14:28:25;0.93;;;0.90;;
22449;SDS011;11392;57.390;-2.468;2023-05-24T14:30:53;1.40;;;1.02;;
22449;SDS011;11392;57.390;-2.468;2023-05-24T14:33:20;1.77;;;1.30;;
22449;SDS011;11392;57.390;-2.468;2023-05-24T14:35:46;1.63;;;1.02;;
22449;SDS011;11392;57.390;-2.468;2023-05-24T14:38:15;1.90;;;1.25;;
22449;SDS011;11392;57.390;-2.468;2023-05-24T14:40:43;1.95;;;1.30;;
22449;SDS011;11392;57.390;-2.468;2023-05-24T14:43:12;2.05;;;1.20;;
22449;SDS011;11392;57.390;-2.468;2023-05-24T14:45:40;1.67;;;1.05;;
22449;SDS011;11392;57.390;-2.468;2023-05-24T14:48:08;1.52;;;0.93;;
22449;SDS011;11392;57.390;-2.468;2023-05-24T14:50:38;2.20;;;1.23;;
22449;SDS011;11392;57.390;-2.468;2023-05-24T14:53:05;1.50;;;1.20;;
22449;SDS011;11392;57.390;-2.468;2023-05-24T14:55:38;3.00;;;1.30;;
22449;SDS011;11392;57.390;-2.468;2023-05-24T14:58:09;2.83;;;1.35;;
22449;SDS011;11392;57.390;-2.468;2023-05-24T15:00:37;2.72;;;1.88;;
22449;SDS011;11392;57.390;-2.468;2023-05-24T15:03:05;2.63;;;1.40;;
22449;SDS011;11392;57.390;-2.468;2023-05-24T15:05:38;4.20;;;1.40;;
22449;SDS011;11392;57.390;-2.468;2023-05-24T15:08:07;3.70;;;1.42;;
22449;SDS011;11392;57.390;-2.468;2023-05-24T15:10:36;4.03;;;1.90;;
22449;SDS011;11392;57.390;-2.468;2023-05-24T15:13:04;5.28;;;2.42;;
22449;SDS011;11392;57.390;-2.468;2023-05-24T15:15:32;4.18;;;2.15;;
22449;SDS011;11392;57.390;-2.468;2023-05-24T15:17:59;7.15;;;2.17;;
22449;SDS011;11392;57.390;-2.468;2023-05-24T15:20:26;3.67;;;1.95;;
22449;SDS011;11392;57.390;-2.468;2023-05-24T15:22:53;3.50;;;1.92;;
22449;SDS011;11392;57.390;-2.468;2023-05-24T15:25:21;5.15;;;1.63;;